Time;durP1;ratioP1;P1;durP2;ratioP2;P2;SDS_P1;SDS_P2;PMS_P1;PMS_P2;Temp;Humidity;BMP_temperature;BMP_pressure;BME280_temperature;BME280_humidity;BME280_pressure;Samples;Min_cycle;Max_cycle;Signal;HPM_P1;HPM_P2
2023/03/07 00:00:36;;;;;;;41.70;23.90;;;1.50;99.90;;;;;;4978622;28;20042;-66
2023/03/07 00:03:02;;;;;;;46.20;23.67;;;1.90;99.90;;;;;;5009471;28;20042;-66
2023/03/07 00:05:28;;;;;;;42.55;24.08;;;1.50;99.90;;;;;;4976748;28;20273;-67
2023/03/07 00:07:54;;;;;;;41.30;22.75;;;3.60;99.90;;;;;;4976388;28;20126;-66
2023/03/07 00:10:19;;;;;;;39.22;21.63;;;1.60;99.90;;;;;;4980254;28;20048;-67
2023/03/07 00:12:45;;;;;;;36.13;20.10;;;3.60;99.90;;;;;;4957175;28;20056;-66
2023/03/07 00:15:11;;;;;;;43.97;22.67;;;2.40;99.90;;;;;;5010592;28;20125;-67
2023/03/07 00:17:37;;;;;;;40.10;21.35;;;2.20;99.90;;;;;;5009385;28;20065;-68
2023/03/07 00:20:07;;;;;;;42.75;22.10;;;3.10;99.90;;;;;;5009257;28;20323;-68
2023/03/07 00:22:34;;;;;;;38.10;21.25;;;1.50;99.90;;;;;;4978761;28;20034;-67
2023/03/07 00:25:00;;;;;;;39.97;20.40;;;3.60;99.90;;;;;;4993710;28;20423;-66
2023/03/07 00:27:29;;;;;;;44.28;21.20;;;1.90;99.90;;;;;;4978743;28;20570;-65
2023/03/07 00:29:55;;;;;;;42.90;20.92;;;3.00;99.90;;;;;;4977259;28;20061;-67
2023/03/07 00:32:21;;;;;;;36.67;20.27;;;2.00;99.90;;;;;;4981004;28;20050;-66
2023/03/07 00:34:46;;;;;;;37.85;20.40;;;3.30;99.90;;;;;;4977088;28;20464;-66
2023/03/07 00:37:14;;;;;;;39.63;20.02;;;3.30;99.90;;;;;;4976353;28;20267;-66
2023/03/07 00:39:40;;;;;;;26.15;13.15;;;3.70;99.90;;;;;;4996177;28;20046;-65
2023/03/07 00:42:06;;;;;;;19.85;10.20;;;3.90;99.90;;;;;;4961872;28;20121;-66
2023/03/07 00:44:32;;;;;;;27.08;13.48;;;2.60;99.90;;;;;;4961502;28;20057;-66
2023/03/07 00:46:58;;;;;;;28.42;13.52;;;2.00;99.90;;;;;;4994027;28;20042;-66
2023/03/07 00:49:23;;;;;;;31.05;14.90;;;1.80;99.90;;;;;;5010936;28;20292;-67
2023/03/07 00:51:49;;;;;;;29.75;15.23;;;3.60;99.90;;;;;;5010280;28;20050;-66
2023/03/07 00:54:15;;;;;;;31.27;15.45;;;3.70;99.90;;;;;;4994434;28;20413;-65
2023/03/07 00:56:40;;;;;;;30.15;14.75;;;3.60;99.90;;;;;;4960617;28;20121;-65
2023/03/07 00:59:06;;;;;;;26.08;13.70;;;1.50;99.90;;;;;;4980536;28;20034;-65
2023/03/07 01:01:32;;;;;;;27.30;13.32;;;3.40;99.90;;;;;;4994343;28;20480;-65
2023/03/07 01:03:58;;;;;;;27.05;13.25;;;1.80;99.90;;;;;;4980663;28;20041;-64
2023/03/07 01:06:26;;;;;;;23.10;9.68;;;2.40;99.90;;;;;;4996619;28;20544;-64
2023/03/07 01:08:54;;;;;;;29.35;11.13;;;3.70;99.90;;;;;;4981621;28;20042;-64
2023/03/07 01:11:19;;;;;;;24.30;9.45;;;1.70;99.90;;;;;;4980036;28;20061;-65
2023/03/07 01:13:45;;;;;;;23.83;8.88;;;1.90;99.90;;;;;;4977437;28;20346;-65
2023/03/07 01:16:14;;;;;;;21.48;7.30;;;3.20;99.90;;;;;;4977895;28;20128;-64
2023/03/07 01:18:40;;;;;;;23.35;7.18;;;2.20;99.90;;;;;;4993789;28;20050;-64
2023/03/07 01:21:15;;;;;;;19.75;5.97;;;2.00;99.90;;;;;;5009055;28;20574;-64
2023/03/07 01:23:40;;;;;;;12.60;5.00;;;1.70;99.90;;;;;;4977041;28;20042;-66
2023/03/07 01:26:06;;;;;;;21.30;4.90;;;2.80;99.90;;;;;;4992720;28;20543;-67
2023/03/07 01:28:32;;;;;;;15.73;4.00;;;3.80;99.90;;;;;;5007550;28;20046;-67
2023/03/07 01:30:58;;;;;;;16.05;3.55;;;1.70;99.90;;;;;;4976178;28;20528;-66
2023/03/07 01:33:24;;;;;;;14.07;2.30;;;1.80;99.90;;;;;;4960534;28;20436;-66
2023/03/07 01:35:50;;;;;;;11.57;1.70;;;1.80;99.90;;;;;;4976001;28;20041;-66
2023/03/07 01:38:15;;;;;;;12.25;1.88;;;2.90;99.90;;;;;;4976121;28;20531;-66
2023/03/07 01:40:41;;;;;;;15.23;1.52;;;3.70;99.90;;;;;;4975047;28;20042;-67
2023/03/07 01:43:29;;;;;;;14.40;1.70;;;3.50;99.90;;;;;;4993068;28;20325;-66
2023/03/07 01:46:39;;;;;;;15.23;0.80;;;2.20;99.90;;;;;;4976499;28;20447;-66
2023/03/07 01:49:14;;;;;;;16.02;1.08;;;2.40;99.90;;;;;;4965383;28;20123;-67
2023/03/07 01:51:42;;;;;;;12.63;1.40;;;2.50;99.90;;;;;;4992702;28;20045;-67
2023/03/07 01:54:10;;;;;;;17.15;0.88;;;1.80;99.90;;;;;;4975706;28;20420;-67
2023/03/07 01:56:38;;;;;;;12.77;0.77;;;1.90;99.90;;;;;;4977650;28;20042;-68
2023/03/07 01:59:05;;;;;;;15.63;1.20;;;2.30;99.90;;;;;;5007057;28;20038;-67
2023/03/07 02:01:32;;;;;;;14.98;0.88;;;2.10;99.90;;;;;;4980931;28;20056;-66
2023/03/07 02:04:20;;;;;;;15.90;0.73;;;2.30;99.90;;;;;;5005121;28;20505;-66
2023/03/07 02:06:45;;;;;;;16.42;0.95;;;2.10;99.90;;;;;;4978587;28;20048;-65
2023/03/07 02:09:16;;;;;;;16.85;0.95;;;2.50;99.90;;;;;;4994940;28;20475;-66
2023/03/07 02:11:43;;;;;;;12.23;0.63;;;1.30;99.90;;;;;;4977848;28;20411;-67
2023/03/07 02:14:09;;;;;;;13.15;0.93;;;1.50;99.90;;;;;;4978973;28;20128;-66
2023/03/07 02:16:37;;;;;;;16.95;1.33;;;2.00;99.90;;;;;;4975722;28;20177;-66
2023/03/07 02:19:20;;;;;;;13.70;0.80;;;3.00;99.90;;;;;;4991735;28;20346;-65
2023/03/07 02:22:06;;;;;;;12.75;1.42;;;1.70;99.90;;;;;;5010518;28;20038;-65
2023/03/07 02:24:38;;;;;;;12.13;0.63;;;1.40;99.90;;;;;;4975017;28;20787;-65
2023/03/07 02:27:05;;;;;;;16.05;1.77;;;1.60;99.90;;;;;;4993188;28;20054;-65
2023/03/07 02:29:30;;;;;;;9.43;0.50;;;1.70;99.90;;;;;;4977038;28;20501;-64
2023/03/07 02:31:56;;;;;;;14.13;0.88;;;2.70;95.30;;;;;;4976886;28;20321;-65
2023/03/07 02:34:28;;;;;;;7.93;0.60;;;2.50;49.30;;;;;;4981548;28;20054;-65
2023/03/07 02:37:15;;;;;;;9.73;0.57;;;2.40;4.60;;;;;;4992655;28;20564;-65
2023/03/07 02:39:44;;;;;;;14.90;0.90;;;2.10;1.00;;;;;;4993531;28;20497;-64
2023/03/07 02:42:28;;;;;;;13.38;0.47;;;2.50;1.00;;;;;;4989992;28;20046;-65
2023/03/07 02:44:57;;;;;;;;;;;2.40;1.00;;;;;;4991953;28;20408;-67
2023/03/07 02:47:23;;;;;;;9.40;0.60;;;1.50;1.00;;;;;;4975517;28;20280;-67
2023/03/07 02:49:49;;;;;;;9.88;0.43;;;2.60;99.90;;;;;;4976205;28;20049;-67
2023/03/07 02:52:15;;;;;;;7.40;0.45;;;2.70;99.90;;;;;;4978552;28;20033;-68
2023/03/07 02:54:41;;;;;;;12.23;0.57;;;2.60;99.90;;;;;;4993084;28;20258;-68
2023/03/07 02:57:06;;;;;;;11.77;1.00;;;2.40;99.90;;;;;;4975140;28;20069;-67
2023/03/07 02:59:32;;;;;;;13.05;0.63;;;2.50;99.90;;;;;;4974903;28;20049;-67
2023/03/07 03:01:58;;;;;;;15.82;0.70;;;1.80;99.90;;;;;;4974811;28;20050;-67
2023/03/07 03:04:23;;;;;;;8.73;0.30;;;2.50;99.90;;;;;;4957894;28;20405;-67
2023/03/07 03:06:49;;;;;;;6.93;0.70;;;1.40;99.90;;;;;;4975643;28;20046;-67
2023/03/07 03:09:15;;;;;;;13.02;0.75;;;1.80;99.90;;;;;;4989602;28;20058;-67
2023/03/07 03:11:41;;;;;;;8.30;0.60;;;1.60;99.90;;;;;;5010913;28;20346;-66
2023/03/07 03:14:07;;;;;;;11.52;0.68;;;1.70;99.90;;;;;;4957436;28;20045;-67
2023/03/07 03:16:33;;;;;;;9.18;0.47;;;2.50;99.90;;;;;;4958097;28;20406;-66
2023/03/07 03:18:59;;;;;;;8.20;0.40;;;2.00;99.90;;;;;;4959460;28;20034;-66
2023/03/07 03:21:25;;;;;;;9.07;0.70;;;2.50;99.90;;;;;;4996117;28;20101;-67
2023/03/07 03:23:50;;;;;;;8.40;0.52;;;2.40;99.90;;;;;;5006543;28;20104;-66
2023/03/07 03:26:16;;;;;;;10.65;0.50;;;2.40;99.90;;;;;;4990398;28;20865;-66
2023/03/07 03:28:42;;;;;;;10.60;0.57;;;2.40;99.90;;;;;;4973777;28;20051;-66
2023/03/07 03:31:13;;;;;;;9.07;0.63;;;2.40;99.90;;;;;;4974659;28;20046;-67
2023/03/07 03:33:40;;;;;;;11.18;0.85;;;2.50;99.90;;;;;;4991177;28;20469;-67
2023/03/07 03:36:09;;;;;;;13.60;0.80;;;1.70;36.50;;;;;;5006594;28;20082;-67
2023/03/07 03:38:35;;;;;;;10.57;0.40;;;2.00;59.60;;;;;;5006717;28;20072;-67
2023/03/07 03:41:11;;;;;;;8.07;0.55;;;1.70;74.20;;;;;;4956498;28;20049;-67
2023/03/07 03:43:37;;;;;;;9.30;1.17;;;2.50;58.00;;;;;;5009680;28;20499;-66
2023/03/07 03:46:03;;;;;;;11.95;0.52;;;1.80;1.00;;;;;;4978082;28;20038;-66
2023/03/07 03:48:29;;;;;;;14.05;0.70;;;2.50;4.30;;;;;;4996765;28;20102;-66
2023/03/07 03:51:01;;;;;;;10.80;0.52;;;2.50;1.00;;;;;;5010790;28;20163;-66
2023/03/07 03:53:27;;;;;;;9.25;0.80;;;1.90;1.00;;;;;;4997639;28;20347;-64
2023/03/07 03:56:10;;;;;;;11.48;0.95;;;2.30;1.00;;;;;;4976846;28;20046;-66
2023/03/07 03:58:37;;;;;;;10.65;0.60;;;1.90;1.00;;;;;;4977424;28;20591;-65
2023/03/07 04:01:09;;;;;;;5.28;0.43;;;1.90;1.00;;;;;;4994100;28;20472;-65
2023/03/07 04:03:43;;;;;;;8.38;0.55;;;2.00;1.00;;;;;;4974964;28;20073;-66
2023/03/07 04:06:17;;;;;;;7.60;0.57;;;2.40;1.00;;;;;;5009922;28;20049;-66
2023/03/07 04:08:45;;;;;;;9.10;0.50;;;1.90;1.00;;;;;;5010453;28;20630;-64
2023/03/07 04:11:11;;;;;;;10.23;0.43;;;2.50;1.00;;;;;;4978778;28;20404;-64
2023/03/07 04:13:37;;;;;;;5.38;0.60;;;2.10;1.00;;;;;;4977715;28;20133;-65
2023/03/07 04:16:04;;;;;;;11.88;1.10;;;2.10;1.00;;;;;;4981170;28;20049;-64
2023/03/07 04:18:30;;;;;;;6.50;0.50;;;2.50;1.00;;;;;;5011691;28;20064;-64
2023/03/07 04:20:56;;;;;;;14.57;0.68;;;2.50;1.00;;;;;;4977166;28;20034;-65
2023/03/07 04:23:23;;;;;;;11.95;0.90;;;2.40;1.00;;;;;;5009909;28;20401;-66
2023/03/07 04:25:50;;;;;;;9.30;0.63;;;2.30;1.00;;;;;;4976409;28;20062;-65
2023/03/07 04:28:17;;;;;;;6.15;0.45;;;2.40;99.90;;;;;;5014094;28;20062;-65
2023/03/07 04:30:43;;;;;;;4.85;0.40;;;2.00;1.00;;;;;;4977647;28;20046;-66
2023/03/07 04:33:09;;;;;;;8.05;0.50;;;2.30;99.90;;;;;;4994465;28;20042;-65
2023/03/07 04:35:35;;;;;;;2.78;0.43;;;1.80;1.00;;;;;;4976677;28;20081;-66
2023/03/07 04:38:01;;;;;;;9.45;0.60;;;2.20;99.90;;;;;;4974423;28;20480;-65
2023/03/07 04:40:26;;;;;;;11.80;0.70;;;1.70;99.90;;;;;;4996518;28;20518;-66
2023/03/07 04:42:52;;;;;;;6.20;0.60;;;1.80;1.00;;;;;;4975205;28;20034;-67
2023/03/07 04:45:18;;;;;;;7.28;0.40;;;2.40;99.90;;;;;;4993846;28;20132;-67
2023/03/07 04:47:43;;;;;;;8.77;0.55;;;2.00;99.90;;;;;;4997768;28;20471;-66
2023/03/07 04:50:09;;;;;;;8.45;0.50;;;2.50;99.90;;;;;;4978688;28;20198;-67
2023/03/07 04:52:35;;;;;;;8.40;0.50;;;2.50;99.90;;;;;;4976499;28;20038;-67
2023/03/07 04:55:01;;;;;;;8.63;0.80;;;2.40;99.90;;;;;;4995527;28;20036;-66
2023/03/07 04:57:27;;;;;;;16.60;1.15;;;2.50;99.90;;;;;;4977568;28;20046;-66
2023/03/07 04:59:52;;;;;;;11.75;1.17;;;2.50;99.90;;;;;;4994592;28;20132;-66
2023/03/07 05:02:18;;;;;;;11.38;0.60;;;2.50;1.00;;;;;;4994725;28;20047;-66
2023/03/07 05:04:44;;;;;;;11.18;0.60;;;2.00;1.00;;;;;;4976339;28;20254;-66
2023/03/07 05:07:10;;;;;;;10.10;0.60;;;2.40;1.00;;;;;;5002278;28;20038;-66
2023/03/07 05:09:35;;;;;;;10.65;0.65;;;2.20;1.00;;;;;;5008780;28;20270;-66
2023/03/07 05:12:01;;;;;;;10.68;0.95;;;1.90;1.00;;;;;;4975763;28;20049;-63
2023/03/07 05:14:30;;;;;;;8.63;0.50;;;1.90;1.00;;;;;;4960953;28;20082;-64
2023/03/07 05:16:55;;;;;;;10.30;0.70;;;2.40;1.00;;;;;;4977285;28;20033;-64
2023/03/07 05:19:21;;;;;;;11.10;0.40;;;1.80;1.00;;;;;;4995103;28;20067;-65
2023/03/07 05:21:48;;;;;;;15.38;1.17;;;2.10;1.00;;;;;;4992212;28;20030;-65
2023/03/07 05:24:14;;;;;;;9.40;0.55;;;1.90;1.00;;;;;;5009628;28;20034;-67
2023/03/07 05:26:40;;;;;;;8.75;0.70;;;2.40;1.00;;;;;;4978198;28;20086;-65
2023/03/07 05:29:06;;;;;;;7.38;0.43;;;2.50;1.00;;;;;;5008563;28;20141;-65
2023/03/07 05:31:32;;;;;;;7.30;0.55;;;2.10;1.00;;;;;;4974507;28;20404;-65
2023/03/07 05:33:58;;;;;;;8.25;0.50;;;2.00;1.00;;;;;;4975120;28;20038;-65
2023/03/07 05:36:23;;;;;;;6.80;0.50;;;2.00;1.00;;;;;;4997479;28;20038;-65
2023/03/07 05:38:52;;;;;;;8.40;0.45;;;2.60;1.00;;;;;;4977053;28;20451;-64
2023/03/07 05:41:18;;;;;;;6.88;0.57;;;2.40;1.00;;;;;;4977949;28;20056;-64
2023/03/07 05:43:44;;;;;;;9.43;0.60;;;2.70;1.00;;;;;;4991979;28;20540;-64
2023/03/07 05:46:09;;;;;;;6.65;0.60;;;2.10;1.00;;;;;;4991721;28;20046;-64
2023/03/07 05:48:35;;;;;;;12.27;0.68;;;2.50;1.00;;;;;;4975028;28;20471;-66
2023/03/07 05:51:01;;;;;;;4.22;0.38;;;2.30;2.00;;;;;;4978028;28;20050;-66
2023/03/07 05:53:26;;;;;;;4.75;0.38;;;2.50;1.00;;;;;;5002155;28;20074;-64
2023/03/07 05:55:52;;;;;;;5.07;0.30;;;2.20;1.00;;;;;;5010800;28;20043;-64
2023/03/07 05:58:18;;;;;;;3.42;0.15;;;2.10;1.00;;;;;;4993755;28;20401;-64
2023/03/07 06:00:43;;;;;;;5.20;0.30;;;2.30;1.00;;;;;;4976430;28;20420;-64
2023/03/07 06:03:09;;;;;;;2.10;0.20;;;2.50;1.00;;;;;;4992027;28;20035;-64
2023/03/07 06:05:35;;;;;;;4.35;0.38;;;2.10;1.00;;;;;;4995994;28;20148;-65
2023/03/07 06:08:02;;;;;;;3.53;0.28;;;2.10;1.00;;;;;;4993725;28;20052;-63
2023/03/07 06:10:28;;;;;;;2.75;0.10;;;2.60;1.00;;;;;;4968282;28;20042;-65
2023/03/07 06:12:54;;;;;;;3.03;0.20;;;2.30;1.00;;;;;;4980083;28;20087;-64
2023/03/07 06:15:20;;;;;;;2.58;0.10;;;2.50;1.00;;;;;;4979079;28;20046;-64
2023/03/07 06:17:46;;;;;;;3.13;0.40;;;1.90;1.00;;;;;;4975690;28;20523;-66
2023/03/07 06:20:13;;;;;;;2.03;0.20;;;2.30;1.00;;;;;;4978041;28;20103;-65
2023/03/07 06:22:38;;;;;;;1.77;0.10;;;2.20;6.50;;;;;;4973696;28;20349;-64
2023/03/07 06:25:06;;;;;;;3.45;0.10;;;2.30;34.80;;;;;;5008506;28;20591;-67
2023/03/07 06:27:33;;;;;;;3.25;0.10;;;1.80;91.70;;;;;;4978424;28;20519;-66
2023/03/07 06:29:59;;;;;;;4.28;0.22;;;1.50;99.90;;;;;;5009031;28;20487;-66
2023/03/07 06:32:25;;;;;;;7.03;0.20;;;1.60;99.90;;;;;;4976659;28;20054;-65
2023/03/07 06:34:51;;;;;;;3.80;0.20;;;1.50;99.90;;;;;;4961567;28;20048;-65
2023/03/07 06:37:16;;;;;;;5.53;0.30;;;2.10;99.90;;;;;;4960145;28;20101;-66
2023/03/07 06:39:42;;;;;;;9.85;0.40;;;1.40;99.90;;;;;;4977397;28;20045;-67
2023/03/07 06:42:08;;;;;;;7.07;0.30;;;1.40;99.90;;;;;;4976824;28;20108;-66
2023/03/07 06:44:34;;;;;;;6.18;0.20;;;1.50;99.90;;;;;;4994436;28;20560;-66
2023/03/07 06:46:59;;;;;;;6.30;0.30;;;1.50;99.90;;;;;;4990338;28;20428;-65
2023/03/07 06:49:25;;;;;;;6.22;0.70;;;2.10;99.90;;;;;;4990003;28;20042;-66
2023/03/07 06:51:51;;;;;;;5.88;0.30;;;2.20;99.90;;;;;;4996786;28;20038;-66
2023/03/07 06:54:17;;;;;;;4.10;0.40;;;1.50;99.90;;;;;;4978360;28;20077;-66
2023/03/07 06:56:43;;;;;;;6.75;0.30;;;2.00;99.90;;;;;;4978127;28;20378;-65
2023/03/07 06:59:10;;;;;;;4.32;0.30;;;1.60;99.90;;;;;;4977019;28;20061;-65
2023/03/07 07:01:36;;;;;;;10.10;0.30;;;2.30;99.90;;;;;;4980320;28;20452;-66
2023/03/07 07:04:02;;;;;;;6.93;0.50;;;2.30;99.90;;;;;;4994778;28;20339;-66
2023/03/07 07:06:28;;;;;;;6.32;0.38;;;1.50;99.90;;;;;;4975504;28;20454;-65
2023/03/07 07:08:58;;;;;;;7.43;0.57;;;1.60;99.90;;;;;;4989001;28;20092;-65
2023/03/07 07:11:25;;;;;;;8.50;0.52;;;2.20;99.90;;;;;;5009421;28;20096;-66
2023/03/07 07:13:51;;;;;;;10.73;0.93;;;2.40;99.90;;;;;;4989083;28;20046;-66
2023/03/07 07:16:17;;;;;;;5.57;0.40;;;2.30;99.90;;;;;;5007782;28;20056;-65
2023/03/07 07:18:43;;;;;;;8.45;0.40;;;1.90;99.90;;;;;;4976813;28;20591;-66
2023/03/07 07:21:09;;;;;;;12.98;0.57;;;2.40;99.90;;;;;;4976835;28;20046;-66
2023/03/07 07:23:35;;;;;;;9.38;0.68;;;1.80;99.90;;;;;;4976687;28;20035;-66
2023/03/07 07:26:01;;;;;;;13.77;0.82;;;2.60;99.90;;;;;;5008638;28;20058;-66
2023/03/07 07:28:27;;;;;;;15.18;0.88;;;2.70;99.90;;;;;;5010944;28;20060;-66
2023/03/07 07:30:53;;;;;;;10.95;1.08;;;2.00;99.90;;;;;;4979895;28;20184;-64
2023/03/07 07:33:19;;;;;;;11.43;0.75;;;2.40;99.90;;;;;;4998347;28;20466;-65
2023/03/07 07:35:45;;;;;;;10.68;0.45;;;2.70;99.90;;;;;;4983012;28;20065;-64
2023/03/07 07:38:12;;;;;;;7.82;0.50;;;2.00;99.90;;;;;;4964259;28;20042;-65
2023/03/07 07:40:38;;;;;;;9.48;0.80;;;2.80;99.90;;;;;;4978421;28;20220;-64
2023/03/07 07:43:03;;;;;;;12.60;1.20;;;2.40;99.90;;;;;;4995068;28;20042;-65
2023/03/07 07:45:29;;;;;;;12.90;0.80;;;2.50;99.90;;;;;;4983022;28;20042;-64
2023/03/07 07:47:55;;;;;;;10.32;0.73;;;3.00;99.90;;;;;;4979313;28;20042;-65
2023/03/07 07:50:22;;;;;;;14.73;1.05;;;2.40;99.90;;;;;;4978392;28;20038;-64
2023/03/07 07:52:48;;;;;;;11.63;0.80;;;2.20;99.90;;;;;;5008932;28;20400;-66
2023/03/07 07:55:14;;;;;;;9.20;0.95;;;3.10;99.90;;;;;;4983203;28;20058;-66
2023/03/07 07:57:41;;;;;;;16.75;1.42;;;2.40;99.90;;;;;;5001994;28;20094;-65
2023/03/07 08:00:09;;;;;;;15.02;0.95;;;2.60;99.90;;;;;;4992082;28;20730;-65
2023/03/07 08:02:35;;;;;;;14.18;1.08;;;2.70;99.90;;;;;;5007928;28;20613;-65
2023/03/07 08:05:00;;;;;;;11.40;0.68;;;3.40;99.90;;;;;;4994396;28;20516;-65
2023/03/07 08:07:26;;;;;;;12.73;1.00;;;2.80;99.90;;;;;;4980424;28;20441;-66
2023/03/07 08:09:52;;;;;;;8.82;0.60;;;3.50;99.90;;;;;;4999185;28;20034;-65
2023/03/07 08:12:18;;;;;;;8.57;0.70;;;3.00;99.90;;;;;;5009297;28;20069;-66
2023/03/07 08:14:43;;;;;;;11.23;0.70;;;3.60;99.90;;;;;;4978645;28;20038;-66
2023/03/07 08:17:09;;;;;;;7.25;0.50;;;3.60;99.90;;;;;;4978075;28;20042;-66
2023/03/07 08:19:35;;;;;;;6.30;0.50;;;3.30;99.90;;;;;;4979370;28;20266;-65
2023/03/07 08:22:01;;;;;;;9.15;0.70;;;2.90;99.90;;;;;;4980601;28;20037;-64
2023/03/07 08:24:27;;;;;;;13.35;0.85;;;3.40;99.90;;;;;;4997130;28;20046;-65
2023/03/07 08:26:53;;;;;;;8.63;0.60;;;2.70;99.90;;;;;;5009811;28;20535;-65
2023/03/07 08:29:19;;;;;;;11.68;0.73;;;3.20;99.90;;;;;;4976610;28;20053;-66
2023/03/07 08:31:45;;;;;;;10.57;0.70;;;3.20;99.90;;;;;;4979812;28;20042;-65
2023/03/07 08:34:11;;;;;;;7.75;0.68;;;3.30;99.90;;;;;;4978101;28;20582;-65
2023/03/07 08:36:38;;;;;;;8.63;0.60;;;3.50;99.90;;;;;;4962256;28;20069;-64
2023/03/07 08:39:04;;;;;;;9.52;0.90;;;3.40;99.90;;;;;;4978283;28;20116;-65
2023/03/07 08:41:30;;;;;;;7.07;0.82;;;3.60;99.90;;;;;;4993798;28;20042;-65
2023/03/07 08:43:56;;;;;;;10.15;0.98;;;3.50;99.90;;;;;;4997242;28;20049;-65
2023/03/07 08:46:22;;;;;;;12.27;0.80;;;3.60;88.30;;;;;;4993137;28;20041;-65
2023/03/07 08:48:48;;;;;;;12.88;0.90;;;3.90;1.00;;;;;;5008457;28;20548;-65
2023/03/07 08:51:16;;;;;;;9.90;0.80;;;3.80;22.60;;;;;;4984090;28;20476;-65
2023/03/07 08:53:43;;;;;;;6.93;0.40;;;3.80;1.00;;;;;;4958824;28;20054;-66
2023/03/07 08:56:12;;;;;;;10.38;0.80;;;4.10;1.00;;;;;;4999675;28;20038;-64
2023/03/07 08:58:38;;;;;;;14.48;0.63;;;4.00;99.90;;;;;;5011572;28;20054;-65
2023/03/07 09:01:05;;;;;;;6.80;0.40;;;4.00;1.00;;;;;;5027707;28;20411;-65
2023/03/07 09:03:32;;;;;;;11.70;0.70;;;4.00;1.00;;;;;;4976449;28;20285;-65
2023/03/07 09:05:58;;;;;;;7.93;0.70;;;4.20;1.00;;;;;;5009256;28;20063;-65
2023/03/07 09:08:24;;;;;;;8.35;0.75;;;4.10;99.90;;;;;;4986661;28;20594;-65
2023/03/07 09:10:50;;;;;;;9.38;1.00;;;4.00;99.90;;;;;;4989593;28;20060;-65
2023/03/07 09:13:17;;;;;;;7.45;0.47;;;4.00;99.90;;;;;;5007886;28;20182;-65
2023/03/07 09:15:43;;;;;;;10.00;0.90;;;4.10;99.90;;;;;;4991995;28;20047;-64
2023/03/07 09:18:09;;;;;;;9.95;0.55;;;4.10;99.90;;;;;;4975910;28;20523;-65
2023/03/07 09:20:37;;;;;;;6.90;0.82;;;4.20;99.90;;;;;;4990120;28;20205;-65
2023/03/07 09:23:03;;;;;;;11.70;0.80;;;4.10;99.90;;;;;;4974549;28;20038;-65
2023/03/07 09:25:29;;;;;;;10.70;0.80;;;3.90;99.90;;;;;;5024316;28;20046;-64
2023/03/07 09:27:55;;;;;;;7.60;0.75;;;4.00;99.90;;;;;;4990435;28;20566;-64
2023/03/07 09:30:21;;;;;;;7.13;0.50;;;4.00;1.00;;;;;;5007207;28;20042;-65
2023/03/07 09:32:48;;;;;;;10.98;0.80;;;3.90;1.00;;;;;;4975645;28;20077;-66
2023/03/07 09:35:14;;;;;;;11.77;0.60;;;3.80;1.00;;;;;;4991690;28;20456;-65
2023/03/07 09:37:40;;;;;;;8.75;0.60;;;3.90;1.00;;;;;;4990649;28;20045;-66
2023/03/07 09:40:10;;;;;;;8.60;0.88;;;3.60;1.00;;;;;;4956652;28;20050;-65
2023/03/07 09:43:00;;;;;;;11.00;0.60;;;3.50;1.00;;;;;;4973050;28;20138;-65
2023/03/07 09:45:31;;;;;;;10.27;0.70;;;3.60;1.00;;;;;;5018650;28;20057;-64
2023/03/07 09:48:21;;;;;;;8.75;0.50;;;4.00;1.00;;;;;;4988809;28;20078;-64
2023/03/07 09:51:20;;;;;;;5.88;0.50;;;4.00;1.00;;;;;;5007896;28;20535;-66
2023/03/07 09:53:46;;;;;;;9.93;0.60;;;3.70;1.00;;;;;;5018533;28;20046;-65
2023/03/07 09:56:18;;;;;;;8.90;0.60;;;3.80;1.00;;;;;;4972541;28;20139;-65
2023/03/07 09:58:50;;;;;;;6.33;0.67;;;4.20;1.00;;;;;;4974123;28;20050;-66
2023/03/07 10:01:20;;;;;;;7.22;0.38;;;4.30;47.60;;;;;;5005217;28;20049;-65
2023/03/07 10:04:15;;;;;;;6.45;0.50;;;4.30;46.60;;;;;;4973101;28;20089;-64
2023/03/07 10:06:44;;;;;;;7.78;0.50;;;4.60;1.00;;;;;;4988535;28;20089;-62
2023/03/07 10:09:21;;;;;;;15.13;0.60;;;4.50;1.00;;;;;;4993884;28;20173;-62
2023/03/07 10:12:25;;;;;;;9.38;0.50;;;4.70;99.90;;;;;;5009141;28;20531;-63
2023/03/07 10:15:09;;;;;;;7.95;0.40;;;4.70;99.90;;;;;;4969862;28;20276;-63
2023/03/07 10:18:13;;;;;;;6.57;0.40;;;5.00;99.90;;;;;;4990752;28;20050;-65
2023/03/07 10:20:55;;;;;;;7.13;0.30;;;5.10;99.90;;;;;;4932131;28;20460;-64
2023/03/07 10:23:31;;;;;;;3.88;0.40;;;5.30;99.90;;;;;;4992485;28;20420;-63
2023/03/07 10:26:04;;;;;;;7.75;0.70;;;5.50;99.90;;;;;;5001882;28;20053;-63
2023/03/07 10:28:38;;;;;;;7.22;0.60;;;5.50;99.90;;;;;;4988384;28;20171;-63
2023/03/07 10:31:35;;;;;;;9.25;0.60;;;5.70;99.90;;;;;;5007074;28;20046;-64
2023/03/07 10:34:13;;;;;;;6.38;0.32;;;5.90;99.90;;;;;;4974075;28;20041;-64
2023/03/07 10:36:45;;;;;;;4.97;0.30;;;6.40;99.90;;;;;;4997477;28;20281;-63
2023/03/07 10:39:53;;;;;;;5.82;0.30;;;6.70;99.90;;;;;;5023894;28;20723;-63
2023/03/07 10:42:22;;;;;;;4.10;0.40;;;6.90;99.90;;;;;;4974070;28;20045;-64
2023/03/07 10:44:48;;;;;;;8.35;0.40;;;7.10;99.90;;;;;;4957954;28;20529;-64
2023/03/07 10:47:26;;;;;;;3.22;0.30;;;7.00;28.60;;;;;;4973120;28;20049;-64
2023/03/07 10:50:01;;;;;;;8.32;0.50;;;6.90;1.00;;;;;;5023291;28;20275;-63
2023/03/07 10:52:33;;;;;;;9.77;0.55;;;7.70;99.90;;;;;;4995839;28;20057;-64
2023/03/07 10:55:36;;;;;;;7.55;0.60;;;7.60;99.90;;;;;;4980729;28;20042;-63
2023/03/07 10:58:14;;;;;;;6.38;0.52;;;7.40;99.90;;;;;;4992489;28;20503;-64
2023/03/07 11:00:43;;;;;;;7.78;0.50;;;7.40;99.90;;;;;;5010770;28;20052;-65
2023/03/07 11:03:27;;;;;;;7.95;0.55;;;7.20;99.90;;;;;;4996398;28;20089;-63
2023/03/07 11:05:53;;;;;;;7.07;0.47;;;6.60;99.90;;;;;;5008385;28;20049;-64
2023/03/07 11:08:34;;;;;;;6.88;0.50;;;6.70;99.90;;;;;;5008467;28;20104;-65
2023/03/07 11:11:01;;;;;;;9.07;0.77;;;6.80;1.00;;;;;;4975403;28;20042;-65
2023/03/07 11:13:28;;;;;;;7.18;0.40;;;6.70;78.50;;;;;;4975308;28;20426;-65
2023/03/07 11:16:20;;;;;;;5.47;0.30;;;6.90;99.90;;;;;;5007584;28;20046;-65
2023/03/07 11:18:46;;;;;;;4.43;0.30;;;7.30;1.00;;;;;;4995546;28;20084;-63
2023/03/07 11:21:31;;;;;;;6.25;0.40;;;8.10;17.80;;;;;;5009995;28;20103;-63
2023/03/07 11:23:59;;;;;;;6.72;0.40;;;8.20;99.90;;;;;;5010014;28;20053;-64
2023/03/07 11:26:24;;;;;;;6.18;0.32;;;8.80;99.90;;;;;;4988755;28;20571;-63
2023/03/07 11:29:10;;;;;;;4.70;0.30;;;9.20;99.90;;;;;;4958456;28;20054;-64
2023/03/07 11:31:43;;;;;;;2.65;0.30;;;8.70;99.90;;;;;;5009867;28;20539;-64
2023/03/07 11:34:25;;;;;;;3.97;0.35;;;9.00;8.40;;;;;;5010073;28;20109;-64
2023/03/07 11:36:56;;;;;;;3.97;0.30;;;8.80;99.90;;;;;;5002131;28;20049;-63
2023/03/07 11:39:43;;;;;;;2.90;0.25;;;8.50;1.00;;;;;;5007397;28;20084;-63
2023/03/07 11:42:21;;;;;;;5.78;0.30;;;8.20;99.90;;;;;;5027018;28;20045;-65
2023/03/07 11:45:07;;;;;;;2.90;0.35;;;9.10;1.00;;;;;;4977108;28;20393;-62
2023/03/07 11:47:49;;;;;;;2.20;0.20;;;9.50;99.90;;;;;;5013105;28;20119;-64
2023/03/07 11:50:22;;;;;;;3.95;0.20;;;9.70;1.00;;;;;;5009604;28;20053;-66
2023/03/07 11:53:16;;;;;;;3.60;0.32;;;10.10;1.00;;;;;;4977008;28;20057;-64
2023/03/07 11:56:09;;;;;;;4.20;0.22;;;10.00;99.90;;;;;;5009637;28;20050;-65
2023/03/07 11:58:59;;;;;;;7.85;0.30;;;9.50;1.00;;;;;;5008252;28;20073;-63
2023/03/07 12:01:51;;;;;;;4.32;0.40;;;8.90;27.00;;;;;;5006667;28;20054;-63
2023/03/07 12:04:19;;;;;;;3.65;0.30;;;8.30;99.90;;;;;;4994751;28;20496;-63
2023/03/07 12:07:11;;;;;;;4.40;0.40;;;8.00;99.90;;;;;;5004462;28;20044;-63
2023/03/07 12:10:30;;;;;;;3.47;0.30;;;8.30;1.00;;;;;;5009278;28;20385;-64
2023/03/07 12:13:34;;;;;;;5.43;0.38;;;8.40;99.90;;;;;;4971915;28;20113;-64
2023/03/07 12:16:11;;;;;;;4.40;0.40;;;8.70;1.00;;;;;;4954807;28;20097;-65
2023/03/07 12:19:09;;;;;;;6.88;0.40;;;8.80;1.00;;;;;;5004400;28;20221;-65
2023/03/07 12:21:53;;;;;;;5.40;0.47;;;8.80;99.90;;;;;;5003911;28;20132;-65
2023/03/07 12:24:23;;;;;;;;;;;9.80;99.90;;;;;;4992923;28;20045;-64
2023/03/07 12:26:58;;;;;;;3.35;0.20;;;9.60;99.90;;;;;;4977443;28;19997;-63
2023/03/07 12:29:35;;;;;;;3.83;0.28;;;10.10;99.90;;;;;;4979628;28;20046;-62
2023/03/07 12:32:30;;;;;;;8.65;0.38;;;9.70;1.00;;;;;;5026172;28;20056;-64
2023/03/07 12:35:38;;;;;;;3.10;0.30;;;9.60;1.00;;;;;;4972877;28;20160;-64
2023/03/07 12:38:31;;;;;;;5.22;0.35;;;9.90;99.90;;;;;;4976139;28;20125;-65
2023/03/07 12:41:19;;;;;;;3.03;0.20;;;9.70;99.90;;;;;;5008564;28;20506;-64
2023/03/07 12:43:50;;;;;;;3.55;0.20;;;9.70;99.90;;;;;;4990910;28;20046;-64
2023/03/07 12:46:23;;;;;;;4.57;0.20;;;9.60;99.90;;;;;;5007036;28;20085;-63
2023/03/07 12:49:08;;;;;;;3.60;0.20;;;9.60;1.00;;;;;;4985407;28;20290;-64
2023/03/07 12:51:42;;;;;;;6.55;0.30;;;9.30;99.90;;;;;;5002985;28;20556;-64
2023/03/07 12:54:13;;;;;;;5.97;0.25;;;10.00;99.90;;;;;;4975565;28;20050;-64
2023/03/07 12:57:21;;;;;;;6.18;0.40;;;10.30;1.00;;;;;;4974843;28;20102;-62
2023/03/07 12:59:49;;;;;;;7.28;0.57;;;9.50;99.90;;;;;;4993997;28;20104;-63
2023/03/07 13:02:28;;;;;;;9.73;0.80;;;8.50;36.50;;;;;;4989495;28;20529;-62
2023/03/07 13:04:54;;;;;;;9.13;0.45;;;7.80;18.10;;;;;;5006548;28;20413;-62
2023/03/07 13:07:24;;;;;;;8.10;0.47;;;7.10;99.90;;;;;;4976404;28;20411;-63
2023/03/07 13:09:53;;;;;;;5.28;0.25;;;6.80;13.00;;;;;;5007637;28;20061;-63
2023/03/07 13:12:35;;;;;;;5.30;0.30;;;7.70;16.80;;;;;;4975302;28;20046;-62